Forside
METAR-TAF:

METAR-TAF

Lufthavne :

Saginaw County H.W. Browne Airport

Saginaw, Michigan, USA

Breddekreds: 43-26-00N, længdekreds: 083-51-45W, højde: 183 m

Aktuelle vejr

Denne rapport blev lavet for 33 minutter siden, kl. 17:16 UTC
Vind 7 kt fra øst
Temperatur -2°C
Fugtighed 63%
Tryk 1024 hPa
Sigt: 16.1 km
Spredte skyer i en højde af 7000 ft

METAR: KHYX 171716Z AUTO 10007KT 10SM SCT070 M02/M08 A3025 RMK AO2

Tid: 12:49 (17:49 UTC)


TAF: fraværende

Vejrobservationer og prognoser fra mere end 4000 lufthavne (METAR og TAF).

De gule og røde prikker repræsenterer de meteorologiske stationer.

Flyt musen over at se navnet på stationen.

Så klik over at se vejr observationer og prognoser.

At skifte det kort: Klik på de grønne knapper med et sort kors for at zoome ind; på den grønne knap med en bindestreg for at zoome ud; eller på de grønne pile for tilstødende kort.


METAR-TAF: